sensor_id;sensor_type;location;lat;lon;timestamp;P1;durP1;ratioP1;P2;durP2;ratioP2
9524;SDS011;15940;48.734;9.112;2023-07-29T00:01:30;2.07;;;1.60;;
9524;SDS011;15940;48.734;9.112;2023-07-29T00:03:58;1.40;;;1.40;;
9524;SDS011;15940;48.734;9.112;2023-07-29T00:06:26;1.87;;;1.77;;
9524;SDS011;15940;48.734;9.112;2023-07-29T00:08:53;3.30;;;1.90;;
9524;SDS011;15940;48.734;9.112;2023-07-29T00:11:20;1.80;;;1.70;;
9524;SDS011;15940;48.734;9.112;2023-07-29T00:13:47;1.60;;;1.50;;
9524;SDS011;15940;48.734;9.112;2023-07-29T00:16:15;2.87;;;1.80;;
9524;SDS011;15940;48.734;9.112;2023-07-29T00:18:42;2.03;;;1.80;;
9524;SDS011;15940;48.734;9.112;2023-07-29T00:21:10;3.17;;;2.00;;
9524;SDS011;15940;48.734;9.112;2023-07-29T00:23:37;1.87;;;1.77;;
9524;SDS011;15940;48.734;9.112;2023-07-29T00:26:04;2.10;;;1.67;;
9524;SDS011;15940;48.734;9.112;2023-07-29T00:28:31;1.90;;;1.80;;
9524;SDS011;15940;48.734;9.112;2023-07-29T00:30:59;1.80;;;1.70;;
9524;SDS011;15940;48.734;9.112;2023-07-29T00:33:25;4.10;;;1.70;;
9524;SDS011;15940;48.734;9.112;2023-07-29T00:35:52;3.23;;;1.60;;
9524;SDS011;15940;48.734;9.112;2023-07-29T00:38:21;1.90;;;1.60;;
9524;SDS011;15940;48.734;9.112;2023-07-29T00:40:48;2.17;;;1.90;;
9524;SDS011;15940;48.734;9.112;2023-07-29T00:43:15;1.93;;;1.70;;
9524;SDS011;15940;48.734;9.112;2023-07-29T00:45:42;1.67;;;1.57;;
9524;SDS011;15940;48.734;9.112;2023-07-29T00:48:10;2.17;;;1.90;;
9524;SDS011;15940;48.734;9.112;2023-07-29T00:50:37;2.07;;;1.87;;
9524;SDS011;15940;48.734;9.112;2023-07-29T00:53:04;1.97;;;1.50;;
9524;SDS011;15940;48.734;9.112;2023-07-29T00:55:33;2.90;;;1.70;;
9524;SDS011;15940;48.734;9.112;2023-07-29T00:58:00;1.90;;;1.80;;
9524;SDS011;15940;48.734;9.112;2023-07-29T01:00:27;4.17;;;1.80;;
9524;SDS011;15940;48.734;9.112;2023-07-29T01:02:54;3.80;;;1.80;;
9524;SDS011;15940;48.734;9.112;2023-07-29T01:05:21;2.17;;;1.83;;
9524;SDS011;15940;48.734;9.112;2023-07-29T01:07:49;2.03;;;1.93;;
9524;SDS011;15940;48.734;9.112;2023-07-29T01:10:29;3.63;;;1.60;;
9524;SDS011;15940;48.734;9.112;2023-07-29T01:13:05;1.70;;;1.60;;
9524;SDS011;15940;48.734;9.112;2023-07-29T01:15:40;1.83;;;1.73;;
9524;SDS011;15940;48.734;9.112;2023-07-29T01:18:15;1.83;;;1.70;;
9524;SDS011;15940;48.734;9.112;2023-07-29T01:20:48;1.77;;;1.67;;
9524;SDS011;15940;48.734;9.112;2023-07-29T01:23:23;1.87;;;1.70;;
9524;SDS011;15940;48.734;9.112;2023-07-29T01:25:50;2.00;;;1.90;;
9524;SDS011;15940;48.734;9.112;2023-07-29T01:28:17;1.70;;;1.60;;
9524;SDS011;15940;48.734;9.112;2023-07-29T01:30:44;4.10;;;1.60;;
9524;SDS011;15940;48.734;9.112;2023-07-29T01:33:14;2.20;;;1.60;;
9524;SDS011;15940;48.734;9.112;2023-07-29T01:35:46;1.90;;;1.70;;
9524;SDS011;15940;48.734;9.112;2023-07-29T01:38:17;1.90;;;1.80;;
9524;SDS011;15940;48.734;9.112;2023-07-29T01:40:48;3.33;;;1.80;;
9524;SDS011;15940;48.734;9.112;2023-07-29T01:43:18;2.33;;;1.70;;
9524;SDS011;15940;48.734;9.112;2023-07-29T01:45:48;2.00;;;1.60;;
9524;SDS011;15940;48.734;9.112;2023-07-29T01:48:16;1.90;;;1.80;;
9524;SDS011;15940;48.734;9.112;2023-07-29T01:50:43;2.20;;;1.70;;
9524;SDS011;15940;48.734;9.112;2023-07-29T01:53:10;1.90;;;1.70;;
9524;SDS011;15940;48.734;9.112;2023-07-29T01:55:37;2.00;;;1.80;;
9524;SDS011;15940;48.734;9.112;2023-07-29T01:58:06;4.47;;;1.80;;
9524;SDS011;15940;48.734;9.112;2023-07-29T02:00:32;1.80;;;1.70;;
9524;SDS011;15940;48.734;9.112;2023-07-29T02:03:00;2.70;;;1.57;;
9524;SDS011;15940;48.734;9.112;2023-07-29T02:05:27;2.00;;;1.80;;
9524;SDS011;15940;48.734;9.112;2023-07-29T02:07:53;1.57;;;1.40;;
9524;SDS011;15940;48.734;9.112;2023-07-29T02:10:20;2.90;;;1.80;;
9524;SDS011;15940;48.734;9.112;2023-07-29T02:12:47;1.90;;;1.80;;
9524;SDS011;15940;48.734;9.112;2023-07-29T02:15:16;2.87;;;1.60;;
9524;SDS011;15940;48.734;9.112;2023-07-29T02:17:43;4.10;;;2.10;;
9524;SDS011;15940;48.734;9.112;2023-07-29T02:20:10;3.20;;;1.87;;
9524;SDS011;15940;48.734;9.112;2023-07-29T02:22:38;2.83;;;1.87;;
9524;SDS011;15940;48.734;9.112;2023-07-29T02:25:05;2.03;;;1.63;;
9524;SDS011;15940;48.734;9.112;2023-07-29T02:27:32;4.30;;;1.97;;
9524;SDS011;15940;48.734;9.112;2023-07-29T02:29:59;1.70;;;1.60;;
9524;SDS011;15940;48.734;9.112;2023-07-29T02:32:27;1.97;;;1.87;;
9524;SDS011;15940;48.734;9.112;2023-07-29T02:34:54;1.93;;;1.80;;
9524;SDS011;15940;48.734;9.112;2023-07-29T02:37:21;4.00;;;1.93;;
9524;SDS011;15940;48.734;9.112;2023-07-29T02:39:48;1.93;;;1.80;;
9524;SDS011;15940;48.734;9.112;2023-07-29T02:42:15;2.63;;;1.80;;
9524;SDS011;15940;48.734;9.112;2023-07-29T02:44:42;3.00;;;2.00;;
9524;SDS011;15940;48.734;9.112;2023-07-29T02:47:09;4.70;;;1.87;;
9524;SDS011;15940;48.734;9.112;2023-07-29T02:49:37;2.40;;;1.93;;
9524;SDS011;15940;48.734;9.112;2023-07-29T02:52:04;2.63;;;1.70;;
9524;SDS011;15940;48.734;9.112;2023-07-29T02:54:31;2.13;;;1.80;;
9524;SDS011;15940;48.734;9.112;2023-07-29T02:56:58;1.87;;;1.60;;
9524;SDS011;15940;48.734;9.112;2023-07-29T02:59:25;3.27;;;1.80;;
9524;SDS011;15940;48.734;9.112;2023-07-29T03:01:52;2.70;;;1.80;;
9524;SDS011;15940;48.734;9.112;2023-07-29T03:04:19;3.03;;;1.73;;
9524;SDS011;15940;48.734;9.112;2023-07-29T03:06:47;3.23;;;1.90;;
9524;SDS011;15940;48.734;9.112;2023-07-29T03:09:14;2.80;;;1.80;;
9524;SDS011;15940;48.734;9.112;2023-07-29T03:11:41;1.90;;;1.80;;
9524;SDS011;15940;48.734;9.112;2023-07-29T03:14:08;2.23;;;2.00;;
9524;SDS011;15940;48.734;9.112;2023-07-29T03:16:35;3.37;;;2.00;;
9524;SDS011;15940;48.734;9.112;2023-07-29T03:19:02;1.90;;;1.80;;
9524;SDS011;15940;48.734;9.112;2023-07-29T03:21:31;2.00;;;1.90;;
9524;SDS011;15940;48.734;9.112;2023-07-29T03:23:59;5.67;;;1.80;;
9524;SDS011;15940;48.734;9.112;2023-07-29T03:26:26;3.23;;;1.90;;
9524;SDS011;15940;48.734;9.112;2023-07-29T03:28:53;2.53;;;2.20;;
9524;SDS011;15940;48.734;9.112;2023-07-29T03:31:20;2.27;;;1.90;;
9524;SDS011;15940;48.734;9.112;2023-07-29T03:33:47;2.27;;;2.07;;
9524;SDS011;15940;48.734;9.112;2023-07-29T03:36:14;2.70;;;2.00;;
9524;SDS011;15940;48.734;9.112;2023-07-29T03:38:41;3.83;;;2.23;;
9524;SDS011;15940;48.734;9.112;2023-07-29T03:41:11;1.77;;;1.67;;
9524;SDS011;15940;48.734;9.112;2023-07-29T03:43:38;3.23;;;1.80;;
9524;SDS011;15940;48.734;9.112;2023-07-29T03:46:05;3.43;;;2.00;;
9524;SDS011;15940;48.734;9.112;2023-07-29T03:48:32;2.80;;;2.00;;
9524;SDS011;15940;48.734;9.112;2023-07-29T03:50:59;13.93;;;2.33;;
9524;SDS011;15940;48.734;9.112;2023-07-29T03:53:26;6.30;;;2.43;;
9524;SDS011;15940;48.734;9.112;2023-07-29T03:55:53;5.47;;;2.10;;
9524;SDS011;15940;48.734;9.112;2023-07-29T03:58:21;2.57;;;2.27;;
9524;SDS011;15940;48.734;9.112;2023-07-29T04:00:48;2.57;;;2.17;;
9524;SDS011;15940;48.734;9.112;2023-07-29T04:03:15;2.73;;;2.13;;
9524;SDS011;15940;48.734;9.112;2023-07-29T04:05:41;3.03;;;2.30;;
9524;SDS011;15940;48.734;9.112;2023-07-29T04:08:08;2.77;;;2.20;;
9524;SDS011;15940;48.734;9.112;2023-07-29T04:10:35;8.50;;;2.40;;
9524;SDS011;15940;48.734;9.112;2023-07-29T04:13:03;2.63;;;2.30;;
9524;SDS011;15940;48.734;9.112;2023-07-29T04:15:31;2.10;;;2.00;;
9524;SDS011;15940;48.734;9.112;2023-07-29T04:17:58;2.50;;;2.20;;
9524;SDS011;15940;48.734;9.112;2023-07-29T04:20:25;1.97;;;1.80;;
9524;SDS011;15940;48.734;9.112;2023-07-29T04:22:52;2.43;;;2.20;;
9524;SDS011;15940;48.734;9.112;2023-07-29T04:25:19;2.23;;;2.03;;
9524;SDS011;15940;48.734;9.112;2023-07-29T04:27:46;2.10;;;1.90;;
9524;SDS011;15940;48.734;9.112;2023-07-29T04:30:12;2.37;;;2.10;;
9524;SDS011;15940;48.734;9.112;2023-07-29T04:32:41;3.07;;;2.30;;
9524;SDS011;15940;48.734;9.112;2023-07-29T04:35:09;3.97;;;2.37;;
9524;SDS011;15940;48.734;9.112;2023-07-29T04:37:36;3.03;;;2.07;;
9524;SDS011;15940;48.734;9.112;2023-07-29T04:40:04;2.20;;;2.00;;
9524;SDS011;15940;48.734;9.112;2023-07-29T04:42:32;5.03;;;2.07;;
9524;SDS011;15940;48.734;9.112;2023-07-29T04:44:59;4.57;;;2.20;;
9524;SDS011;15940;48.734;9.112;2023-07-29T04:47:26;2.70;;;2.50;;
9524;SDS011;15940;48.734;9.112;2023-07-29T04:49:54;3.40;;;2.50;;
9524;SDS011;15940;48.734;9.112;2023-07-29T04:52:21;4.77;;;2.23;;
9524;SDS011;15940;48.734;9.112;2023-07-29T04:54:48;7.57;;;2.67;;
9524;SDS011;15940;48.734;9.112;2023-07-29T04:57:15;3.37;;;2.50;;
9524;SDS011;15940;48.734;9.112;2023-07-29T04:59:42;3.13;;;2.70;;
9524;SDS011;15940;48.734;9.112;2023-07-29T05:02:09;4.77;;;2.70;;
9524;SDS011;15940;48.734;9.112;2023-07-29T05:04:36;2.73;;;2.40;;
9524;SDS011;15940;48.734;9.112;2023-07-29T05:07:05;3.20;;;2.90;;
9524;SDS011;15940;48.734;9.112;2023-07-29T05:09:32;3.13;;;2.73;;
9524;SDS011;15940;48.734;9.112;2023-07-29T05:11:59;4.13;;;2.83;;
9524;SDS011;15940;48.734;9.112;2023-07-29T05:14:26;4.00;;;2.63;;
9524;SDS011;15940;48.734;9.112;2023-07-29T05:16:53;2.50;;;2.40;;
9524;SDS011;15940;48.734;9.112;2023-07-29T05:19:20;3.40;;;2.70;;
9524;SDS011;15940;48.734;9.112;2023-07-29T05:21:47;5.03;;;2.90;;
9524;SDS011;15940;48.734;9.112;2023-07-29T05:24:15;4.77;;;2.57;;
9524;SDS011;15940;48.734;9.112;2023-07-29T05:26:42;3.53;;;2.80;;
9524;SDS011;15940;48.734;9.112;2023-07-29T05:29:09;3.00;;;2.80;;
9524;SDS011;15940;48.734;9.112;2023-07-29T05:31:36;4.50;;;2.80;;
9524;SDS011;15940;48.734;9.112;2023-07-29T05:34:03;3.37;;;3.07;;
9524;SDS011;15940;48.734;9.112;2023-07-29T05:36:30;3.33;;;2.70;;
9524;SDS011;15940;48.734;9.112;2023-07-29T05:38:57;3.53;;;3.23;;
9524;SDS011;15940;48.734;9.112;2023-07-29T05:41:26;3.33;;;3.03;;
9524;SDS011;15940;48.734;9.112;2023-07-29T05:43:54;5.53;;;2.90;;
9524;SDS011;15940;48.734;9.112;2023-07-29T05:46:20;3.77;;;2.90;;
9524;SDS011;15940;48.734;9.112;2023-07-29T05:48:47;3.73;;;2.73;;
9524;SDS011;15940;48.734;9.112;2023-07-29T05:51:14;6.93;;;3.30;;
9524;SDS011;15940;48.734;9.112;2023-07-29T05:53:41;3.23;;;3.03;;
9524;SDS011;15940;48.734;9.112;2023-07-29T05:56:08;3.80;;;2.83;;
9524;SDS011;15940;48.734;9.112;2023-07-29T05:58:37;3.30;;;2.73;;
9524;SDS011;15940;48.734;9.112;2023-07-29T06:01:04;3.43;;;2.80;;
9524;SDS011;15940;48.734;9.112;2023-07-29T06:03:31;4.33;;;3.20;;
9524;SDS011;15940;48.734;9.112;2023-07-29T06:05:58;3.17;;;2.77;;
9524;SDS011;15940;48.734;9.112;2023-07-29T06:08:25;4.20;;;3.03;;
9524;SDS011;15940;48.734;9.112;2023-07-29T06:10:53;3.10;;;2.80;;
9524;SDS011;15940;48.734;9.112;2023-07-29T06:13:20;3.07;;;2.87;;
9524;SDS011;15940;48.734;9.112;2023-07-29T06:15:48;3.40;;;2.77;;
9524;SDS011;15940;48.734;9.112;2023-07-29T06:18:16;3.27;;;2.77;;
9524;SDS011;15940;48.734;9.112;2023-07-29T06:23:09;2.80;;;2.43;;
9524;SDS011;15940;48.734;9.112;2023-07-29T06:25:35;2.70;;;2.50;;
9524;SDS011;15940;48.734;9.112;2023-07-29T06:28:02;3.60;;;2.30;;
9524;SDS011;15940;48.734;9.112;2023-07-29T06:30:30;4.03;;;2.60;;
9524;SDS011;15940;48.734;9.112;2023-07-29T06:32:57;2.40;;;2.23;;
9524;SDS011;15940;48.734;9.112;2023-07-29T06:35:23;2.43;;;2.13;;
9524;SDS011;15940;48.734;9.112;2023-07-29T06:37:50;3.93;;;2.13;;
9524;SDS011;15940;48.734;9.112;2023-07-29T06:40:19;2.13;;;2.03;;
9524;SDS011;15940;48.734;9.112;2023-07-29T06:42:46;3.37;;;2.00;;
9524;SDS011;15940;48.734;9.112;2023-07-29T06:45:13;2.10;;;1.90;;
9524;SDS011;15940;48.734;9.112;2023-07-29T06:47:40;2.10;;;1.90;;
9524;SDS011;15940;48.734;9.112;2023-07-29T06:50:07;2.20;;;2.00;;
9524;SDS011;15940;48.734;9.112;2023-07-29T06:52:35;2.43;;;2.13;;
9524;SDS011;15940;48.734;9.112;2023-07-29T06:55:03;2.27;;;2.13;;
9524;SDS011;15940;48.734;9.112;2023-07-29T06:57:32;2.03;;;1.93;;
9524;SDS011;15940;48.734;9.112;2023-07-29T06:59:59;4.40;;;1.93;;
9524;SDS011;15940;48.734;9.112;2023-07-29T07:04:22;1.90;;;1.80;;
9524;SDS011;15940;48.734;9.112;2023-07-29T07:06:49;3.97;;;2.30;;
9524;SDS011;15940;48.734;9.112;2023-07-29T07:09:15;2.13;;;1.93;;
9524;SDS011;15940;48.734;9.112;2023-07-29T07:11:42;2.17;;;2.07;;
9524;SDS011;15940;48.734;9.112;2023-07-29T07:14:09;1.70;;;1.60;;
9524;SDS011;15940;48.734;9.112;2023-07-29T07:16:36;3.20;;;1.67;;
9524;SDS011;15940;48.734;9.112;2023-07-29T07:19:04;2.13;;;1.57;;
9524;SDS011;15940;48.734;9.112;2023-07-29T07:21:32;2.30;;;1.70;;
9524;SDS011;15940;48.734;9.112;2023-07-29T07:23:59;2.27;;;1.60;;
9524;SDS011;15940;48.734;9.112;2023-07-29T07:28:48;2.13;;;1.80;;
9524;SDS011;15940;48.734;9.112;2023-07-29T07:31:16;2.17;;;2.03;;
9524;SDS011;15940;48.734;9.112;2023-07-29T07:33:43;3.97;;;2.70;;
9524;SDS011;15940;48.734;9.112;2023-07-29T07:36:10;2.40;;;2.20;;
9524;SDS011;15940;48.734;9.112;2023-07-29T07:38:37;2.30;;;2.10;;
9524;SDS011;15940;48.734;9.112;2023-07-29T07:41:05;1.93;;;1.73;;
9524;SDS011;15940;48.734;9.112;2023-07-29T07:43:31;2.53;;;1.70;;
9524;SDS011;15940;48.734;9.112;2023-07-29T07:46:00;2.70;;;1.80;;
9524;SDS011;15940;48.734;9.112;2023-07-29T07:48:31;3.03;;;1.90;;
9524;SDS011;15940;48.734;9.112;2023-07-29T07:50:58;1.47;;;1.43;;
9524;SDS011;15940;48.734;9.112;2023-07-29T07:53:25;1.83;;;1.73;;
9524;SDS011;15940;48.734;9.112;2023-07-29T07:55:52;1.90;;;1.80;;
9524;SDS011;15940;48.734;9.112;2023-07-29T07:58:19;3.03;;;2.00;;
9524;SDS011;15940;48.734;9.112;2023-07-29T08:00:46;2.10;;;1.90;;
9524;SDS011;15940;48.734;9.112;2023-07-29T08:03:14;2.77;;;1.80;;
9524;SDS011;15940;48.734;9.112;2023-07-29T08:05:41;1.97;;;1.63;;
9524;SDS011;15940;48.734;9.112;2023-07-29T08:08:08;2.10;;;1.90;;
9524;SDS011;15940;48.734;9.112;2023-07-29T08:10:35;2.93;;;1.80;;
9524;SDS011;15940;48.734;9.112;2023-07-29T08:13:02;2.00;;;1.83;;
9524;SDS011;15940;48.734;9.112;2023-07-29T08:15:29;1.90;;;1.80;;
9524;SDS011;15940;48.734;9.112;2023-07-29T08:17:56;2.30;;;2.00;;
9524;SDS011;15940;48.734;9.112;2023-07-29T08:20:24;3.27;;;2.10;;
9524;SDS011;15940;48.734;9.112;2023-07-29T08:22:51;1.70;;;1.60;;
9524;SDS011;15940;48.734;9.112;2023-07-29T08:25:18;1.67;;;1.57;;
9524;SDS011;15940;48.734;9.112;2023-07-29T08:27:45;3.43;;;1.57;;
9524;SDS011;15940;48.734;9.112;2023-07-29T08:30:12;1.80;;;1.70;;
9524;SDS011;15940;48.734;9.112;2023-07-29T08:32:40;1.60;;;1.50;;
9524;SDS011;15940;48.734;9.112;2023-07-29T08:35:09;1.57;;;1.37;;
9524;SDS011;15940;48.734;9.112;2023-07-29T08:37:37;2.17;;;1.60;;
9524;SDS011;15940;48.734;9.112;2023-07-29T08:40:05;2.97;;;1.70;;
9524;SDS011;15940;48.734;9.112;2023-07-29T08:42:33;1.70;;;1.60;;
9524;SDS011;15940;48.734;9.112;2023-07-29T08:45:06;1.77;;;1.67;;
9524;SDS011;15940;48.734;9.112;2023-07-29T08:47:34;2.33;;;1.60;;
9524;SDS011;15940;48.734;9.112;2023-07-29T08:50:01;1.40;;;1.30;;
9524;SDS011;15940;48.734;9.112;2023-07-29T08:52:30;1.27;;;1.27;;
9524;SDS011;15940;48.734;9.112;2023-07-29T08:55:01;2.23;;;1.40;;
9524;SDS011;15940;48.734;9.112;2023-07-29T08:57:28;1.60;;;1.50;;
9524;SDS011;15940;48.734;9.112;2023-07-29T08:59:56;3.33;;;1.50;;
9524;SDS011;15940;48.734;9.112;2023-07-29T09:02:24;1.50;;;1.40;;
9524;SDS011;15940;48.734;9.112;2023-07-29T09:04:51;1.40;;;1.30;;
9524;SDS011;15940;48.734;9.112;2023-07-29T09:07:18;1.40;;;1.30;;
9524;SDS011;15940;48.734;9.112;2023-07-29T09:09:46;1.40;;;1.30;;
9524;SDS011;15940;48.734;9.112;2023-07-29T09:12:14;1.47;;;1.37;;
9524;SDS011;15940;48.734;9.112;2023-07-29T09:14:42;1.70;;;1.60;;
9524;SDS011;15940;48.734;9.112;2023-07-29T09:17:09;1.40;;;1.40;;
9524;SDS011;15940;48.734;9.112;2023-07-29T09:19:36;2.00;;;1.80;;
9524;SDS011;15940;48.734;9.112;2023-07-29T09:22:03;1.40;;;1.30;;
9524;SDS011;15940;48.734;9.112;2023-07-29T09:24:31;1.57;;;1.47;;
9524;SDS011;15940;48.734;9.112;2023-07-29T09:26:59;1.63;;;1.40;;
9524;SDS011;15940;48.734;9.112;2023-07-29T09:29:28;1.73;;;1.63;;
9524;SDS011;15940;48.734;9.112;2023-07-29T09:34:45;1.73;;;1.63;;
9524;SDS011;15940;48.734;9.112;2023-07-29T09:37:15;1.40;;;1.30;;
9524;SDS011;15940;48.734;9.112;2023-07-29T09:39:46;1.73;;;1.63;;
9524;SDS011;15940;48.734;9.112;2023-07-29T09:42:16;1.47;;;1.43;;
9524;SDS011;15940;48.734;9.112;2023-07-29T09:44:46;1.67;;;1.57;;
9524;SDS011;15940;48.734;9.112;2023-07-29T09:47:21;1.40;;;1.30;;
9524;SDS011;15940;48.734;9.112;2023-07-29T09:49:50;1.20;;;1.20;;
9524;SDS011;15940;48.734;9.112;2023-07-29T09:52:18;1.20;;;1.20;;
9524;SDS011;15940;48.734;9.112;2023-07-29T09:54:47;1.70;;;1.60;;
9524;SDS011;15940;48.734;9.112;2023-07-29T09:57:15;1.63;;;1.53;;
9524;SDS011;15940;48.734;9.112;2023-07-29T09:59:53;2.17;;;1.70;;
9524;SDS011;15940;48.734;9.112;2023-07-29T10:02:21;3.53;;;1.47;;
9524;SDS011;15940;48.734;9.112;2023-07-29T10:04:50;1.70;;;1.60;;
9524;SDS011;15940;48.734;9.112;2023-07-29T10:07:18;1.70;;;1.60;;
9524;SDS011;15940;48.734;9.112;2023-07-29T10:09:46;1.87;;;1.70;;
9524;SDS011;15940;48.734;9.112;2023-07-29T10:12:15;1.80;;;1.70;;
9524;SDS011;15940;48.734;9.112;2023-07-29T10:14:42;3.23;;;1.70;;
9524;SDS011;15940;48.734;9.112;2023-07-29T10:17:11;1.73;;;1.63;;
9524;SDS011;15940;48.734;9.112;2023-07-29T10:19:39;2.07;;;1.90;;
9524;SDS011;15940;48.734;9.112;2023-07-29T10:22:07;1.70;;;1.60;;
9524;SDS011;15940;48.734;9.112;2023-07-29T10:24:35;2.70;;;1.73;;
9524;SDS011;15940;48.734;9.112;2023-07-29T10:27:06;2.00;;;1.90;;
9524;SDS011;15940;48.734;9.112;2023-07-29T10:29:38;2.07;;;1.50;;
9524;SDS011;15940;48.734;9.112;2023-07-29T10:32:10;1.77;;;1.67;;
9524;SDS011;15940;48.734;9.112;2023-07-29T10:34:38;1.47;;;1.40;;
9524;SDS011;15940;48.734;9.112;2023-07-29T10:37:07;1.80;;;1.70;;
9524;SDS011;15940;48.734;9.112;2023-07-29T10:39:37;1.40;;;1.30;;
9524;SDS011;15940;48.734;9.112;2023-07-29T10:42:05;1.60;;;1.50;;
9524;SDS011;15940;48.734;9.112;2023-07-29T10:44:45;1.67;;;1.57;;
9524;SDS011;15940;48.734;9.112;2023-07-29T10:47:17;1.63;;;1.53;;
9524;SDS011;15940;48.734;9.112;2023-07-29T10:49:46;1.90;;;1.80;;
9524;SDS011;15940;48.734;9.112;2023-07-29T10:52:17;2.40;;;2.20;;
9524;SDS011;15940;48.734;9.112;2023-07-29T10:54:56;4.17;;;2.00;;
9524;SDS011;15940;48.734;9.112;2023-07-29T10:57:30;1.50;;;1.40;;
9524;SDS011;15940;48.734;9.112;2023-07-29T10:59:58;1.90;;;1.80;;
9524;SDS011;15940;48.734;9.112;2023-07-29T11:02:29;1.70;;;1.60;;
9524;SDS011;15940;48.734;9.112;2023-07-29T11:04:58;1.70;;;1.37;;
9524;SDS011;15940;48.734;9.112;2023-07-29T11:07:30;2.57;;;1.60;;
9524;SDS011;15940;48.734;9.112;2023-07-29T11:10:08;1.50;;;1.40;;
9524;SDS011;15940;48.734;9.112;2023-07-29T11:12:39;1.80;;;1.70;;
9524;SDS011;15940;48.734;9.112;2023-07-29T11:15:15;1.60;;;1.50;;
9524;SDS011;15940;48.734;9.112;2023-07-29T11:17:52;1.70;;;1.60;;
9524;SDS011;15940;48.734;9.112;2023-07-29T11:20:21;1.50;;;1.40;;
9524;SDS011;15940;48.734;9.112;2023-07-29T11:22:50;1.60;;;1.50;;
9524;SDS011;15940;48.734;9.112;2023-07-29T11:25:21;1.67;;;1.57;;
9524;SDS011;15940;48.734;9.112;2023-07-29T11:27:51;1.73;;;1.63;;
9524;SDS011;15940;48.734;9.112;2023-07-29T11:30:19;1.50;;;1.40;;
9524;SDS011;15940;48.734;9.112;2023-07-29T11:32:47;2.37;;;1.60;;
9524;SDS011;15940;48.734;9.112;2023-07-29T11:35:16;1.70;;;1.60;;
9524;SDS011;15940;48.734;9.112;2023-07-29T11:37:44;1.90;;;1.80;;
9524;SDS011;15940;48.734;9.112;2023-07-29T11:40:14;1.63;;;1.53;;
9524;SDS011;15940;48.734;9.112;2023-07-29T11:42:41;3.17;;;1.73;;
9524;SDS011;15940;48.734;9.112;2023-07-29T11:45:09;1.67;;;1.40;;
9524;SDS011;15940;48.734;9.112;2023-07-29T11:47:36;1.70;;;1.60;;
9524;SDS011;15940;48.734;9.112;2023-07-29T11:50:04;1.57;;;1.57;;
9524;SDS011;15940;48.734;9.112;2023-07-29T11:52:35;1.70;;;1.60;;
9524;SDS011;15940;48.734;9.112;2023-07-29T11:55:04;1.77;;;1.67;;
9524;SDS011;15940;48.734;9.112;2023-07-29T11:57:33;1.43;;;1.33;;
9524;SDS011;15940;48.734;9.112;2023-07-29T12:00:03;1.73;;;1.63;;
9524;SDS011;15940;48.734;9.112;2023-07-29T12:02:32;1.63;;;1.40;;
9524;SDS011;15940;48.734;9.112;2023-07-29T12:05:02;1.60;;;1.50;;
9524;SDS011;15940;48.734;9.112;2023-07-29T12:07:30;1.80;;;1.70;;
9524;SDS011;15940;48.734;9.112;2023-07-29T12:09:59;1.70;;;1.60;;
9524;SDS011;15940;48.734;9.112;2023-07-29T12:12:28;1.70;;;1.60;;
9524;SDS011;15940;48.734;9.112;2023-07-29T12:14:55;1.80;;;1.70;;
9524;SDS011;15940;48.734;9.112;2023-07-29T12:17:22;2.13;;;2.03;;
9524;SDS011;15940;48.734;9.112;2023-07-29T12:19:49;2.10;;;2.00;;
9524;SDS011;15940;48.734;9.112;2023-07-29T12:22:20;1.57;;;1.47;;
9524;SDS011;15940;48.734;9.112;2023-07-29T12:24:47;2.47;;;1.83;;
9524;SDS011;15940;48.734;9.112;2023-07-29T12:27:18;2.30;;;2.10;;
9524;SDS011;15940;48.734;9.112;2023-07-29T12:29:48;1.77;;;1.67;;
9524;SDS011;15940;48.734;9.112;2023-07-29T12:32:19;1.37;;;1.37;;
9524;SDS011;15940;48.734;9.112;2023-07-29T12:34:46;1.70;;;1.60;;
9524;SDS011;15940;48.734;9.112;2023-07-29T12:37:13;1.77;;;1.63;;
9524;SDS011;15940;48.734;9.112;2023-07-29T12:39:40;2.13;;;1.70;;
9524;SDS011;15940;48.734;9.112;2023-07-29T12:42:07;2.87;;;1.90;;
9524;SDS011;15940;48.734;9.112;2023-07-29T12:44:37;3.37;;;1.67;;
9524;SDS011;15940;48.734;9.112;2023-07-29T12:47:05;1.63;;;1.53;;
9524;SDS011;15940;48.734;9.112;2023-07-29T12:49:33;2.90;;;1.63;;
9524;SDS011;15940;48.734;9.112;2023-07-29T12:52:00;2.67;;;1.70;;
9524;SDS011;15940;48.734;9.112;2023-07-29T12:54:27;1.70;;;1.60;;
9524;SDS011;15940;48.734;9.112;2023-07-29T12:56:54;2.70;;;1.90;;
9524;SDS011;15940;48.734;9.112;2023-07-29T12:59:21;2.37;;;1.80;;
9524;SDS011;15940;48.734;9.112;2023-07-29T13:01:50;1.80;;;1.70;;
9524;SDS011;15940;48.734;9.112;2023-07-29T13:04:16;1.83;;;1.70;;
9524;SDS011;15940;48.734;9.112;2023-07-29T13:06:43;1.67;;;1.57;;
9524;SDS011;15940;48.734;9.112;2023-07-29T13:09:10;3.30;;;1.90;;
9524;SDS011;15940;48.734;9.112;2023-07-29T13:11:37;2.20;;;1.60;;
9524;SDS011;15940;48.734;9.112;2023-07-29T13:14:04;1.70;;;1.60;;
9524;SDS011;15940;48.734;9.112;2023-07-29T13:16:31;1.80;;;1.70;;
9524;SDS011;15940;48.734;9.112;2023-07-29T13:18:59;1.70;;;1.60;;
9524;SDS011;15940;48.734;9.112;2023-07-29T13:21:26;1.90;;;1.80;;
9524;SDS011;15940;48.734;9.112;2023-07-29T13:23:53;1.70;;;1.60;;
9524;SDS011;15940;48.734;9.112;2023-07-29T13:26:20;2.13;;;1.93;;
9524;SDS011;15940;48.734;9.112;2023-07-29T13:28:47;1.80;;;1.70;;
9524;SDS011;15940;48.734;9.112;2023-07-29T13:31:14;1.90;;;1.80;;
9524;SDS011;15940;48.734;9.112;2023-07-29T13:33:41;1.77;;;1.67;;
9524;SDS011;15940;48.734;9.112;2023-07-29T13:36:09;1.63;;;1.40;;
9524;SDS011;15940;48.734;9.112;2023-07-29T13:38:36;1.63;;;1.63;;
9524;SDS011;15940;48.734;9.112;2023-07-29T13:41:03;1.70;;;1.60;;
9524;SDS011;15940;48.734;9.112;2023-07-29T13:43:30;1.93;;;1.83;;
9524;SDS011;15940;48.734;9.112;2023-07-29T13:45:57;1.70;;;1.60;;
9524;SDS011;15940;48.734;9.112;2023-07-29T13:48:23;3.57;;;1.70;;
9524;SDS011;15940;48.734;9.112;2023-07-29T13:50:50;1.30;;;1.30;;
9524;SDS011;15940;48.734;9.112;2023-07-29T13:53:18;2.53;;;2.00;;
9524;SDS011;15940;48.734;9.112;2023-07-29T13:55:45;4.13;;;1.77;;
9524;SDS011;15940;48.734;9.112;2023-07-29T13:58:12;1.80;;;1.70;;
9524;SDS011;15940;48.734;9.112;2023-07-29T14:00:39;1.70;;;1.53;;
9524;SDS011;15940;48.734;9.112;2023-07-29T14:03:06;1.73;;;1.63;;
9524;SDS011;15940;48.734;9.112;2023-07-29T14:05:33;1.63;;;1.53;;
9524;SDS011;15940;48.734;9.112;2023-07-29T14:08:00;2.43;;;1.93;;
9524;SDS011;15940;48.734;9.112;2023-07-29T14:10:28;1.73;;;1.63;;
9524;SDS011;15940;48.734;9.112;2023-07-29T14:12:55;1.67;;;1.50;;
9524;SDS011;15940;48.734;9.112;2023-07-29T14:15:22;2.33;;;1.73;;
9524;SDS011;15940;48.734;9.112;2023-07-29T14:17:49;1.90;;;1.80;;
9524;SDS011;15940;48.734;9.112;2023-07-29T14:20:15;1.70;;;1.60;;
9524;SDS011;15940;48.734;9.112;2023-07-29T14:22:43;2.20;;;1.87;;
9524;SDS011;15940;48.734;9.112;2023-07-29T14:25:10;2.33;;;1.70;;
9524;SDS011;15940;48.734;9.112;2023-07-29T14:27:39;2.03;;;1.93;;
9524;SDS011;15940;48.734;9.112;2023-07-29T14:30:06;2.13;;;1.93;;
9524;SDS011;15940;48.734;9.112;2023-07-29T14:32:34;1.80;;;1.70;;
9524;SDS011;15940;48.734;9.112;2023-07-29T14:35:02;1.80;;;1.70;;
9524;SDS011;15940;48.734;9.112;2023-07-29T14:37:30;1.90;;;1.80;;
9524;SDS011;15940;48.734;9.112;2023-07-29T14:39:57;1.80;;;1.70;;
9524;SDS011;15940;48.734;9.112;2023-07-29T14:42:24;2.10;;;2.00;;
9524;SDS011;15940;48.734;9.112;2023-07-29T14:44:53;3.77;;;1.77;;
9524;SDS011;15940;48.734;9.112;2023-07-29T14:47:21;2.03;;;1.93;;
9524;SDS011;15940;48.734;9.112;2023-07-29T14:49:48;1.70;;;1.70;;
9524;SDS011;15940;48.734;9.112;2023-07-29T14:52:15;2.10;;;1.90;;
9524;SDS011;15940;48.734;9.112;2023-07-29T14:54:42;1.93;;;1.80;;
9524;SDS011;15940;48.734;9.112;2023-07-29T14:57:09;2.20;;;1.80;;
9524;SDS011;15940;48.734;9.112;2023-07-29T14:59:36;2.00;;;1.90;;
9524;SDS011;15940;48.734;9.112;2023-07-29T15:02:05;2.37;;;1.90;;
9524;SDS011;15940;48.734;9.112;2023-07-29T15:04:32;1.60;;;1.50;;
9524;SDS011;15940;48.734;9.112;2023-07-29T15:06:59;1.80;;;1.70;;
9524;SDS011;15940;48.734;9.112;2023-07-29T15:09:28;2.10;;;1.90;;
9524;SDS011;15940;48.734;9.112;2023-07-29T15:11:55;2.17;;;2.00;;
9524;SDS011;15940;48.734;9.112;2023-07-29T15:14:22;2.50;;;1.90;;